createdAt,value
2023-05-25T00:01:11.906Z,49.70
2023-05-25T00:03:15.169Z,49.69
2023-05-25T00:05:18.497Z,49.63
2023-05-25T00:07:20.667Z,49.70
2023-05-25T00:09:24.794Z,49.87
2023-05-25T00:11:26.834Z,49.70
2023-05-25T00:13:28.628Z,49.87
2023-05-25T00:15:30.529Z,49.40
2023-05-25T00:17:32.472Z,49.65
2023-05-25T00:19:34.414Z,49.61
2023-05-25T00:21:38.304Z,49.67
2023-05-25T00:23:40.268Z,50.14
2023-05-25T00:25:42.676Z,50.16
2023-05-25T00:27:44.626Z,50.00
2023-05-25T00:29:47.044Z,50.63
2023-05-25T00:31:50.892Z,51.33
2023-05-25T00:33:52.661Z,51.66
2023-05-25T00:35:54.530Z,51.56
2023-05-25T00:37:56.764Z,51.81
2023-05-25T00:39:58.541Z,51.87
2023-05-25T00:42:05.034Z,52.33
2023-05-25T00:44:07.158Z,52.33
2023-05-25T00:46:10.672Z,52.87
2023-05-25T00:48:12.886Z,52.83
2023-05-25T00:50:17.282Z,52.76
2023-05-25T00:52:19.179Z,53.33
2023-05-25T00:54:22.088Z,53.49
2023-05-25T00:56:29.156Z,53.38
2023-05-25T00:58:34.398Z,53.62
2023-05-25T01:00:37.792Z,53.72
2023-05-25T01:02:43.837Z,53.55
2023-05-25T01:04:52.643Z,53.96
2023-05-25T01:06:57.991Z,54.29
2023-05-25T01:09:04.599Z,54.22
2023-05-25T01:11:08.472Z,54.23
2023-05-25T01:13:11.430Z,54.27
2023-05-25T01:15:13.316Z,54.31
2023-05-25T01:17:16.126Z,54.46
2023-05-25T01:19:18.531Z,55.13
2023-05-25T01:21:27.176Z,54.62
2023-05-25T01:23:35.403Z,54.91
2023-05-25T01:25:40.794Z,54.95
2023-05-25T01:27:54.692Z,54.99
2023-05-25T01:29:59.409Z,55.05
2023-05-25T01:32:03.423Z,55.30
2023-05-25T01:34:08.534Z,55.10
2023-05-25T01:36:10.242Z,54.80
2023-05-25T01:38:12.252Z,54.52
2023-05-25T01:40:15.716Z,54.81
2023-05-25T01:42:17.487Z,54.88
2023-05-25T01:44:19.582Z,54.64
2023-05-25T01:46:35.870Z,54.95
2023-05-25T01:49:04.196Z,55.72
2023-05-25T01:51:17.294Z,55.44
2023-05-25T01:53:23.078Z,55.36
2023-05-25T01:55:27.734Z,55.53
2023-05-25T01:57:31.109Z,55.76
2023-05-25T01:59:34.231Z,56.25
2023-05-25T02:01:41.261Z,55.94
2023-05-25T02:03:45.048Z,56.34
2023-05-25T02:05:47.685Z,56.71
2023-05-25T02:07:49.585Z,56.49
2023-05-25T02:09:51.434Z,56.28
2023-05-25T02:11:54.109Z,57.06
2023-05-25T02:13:56.009Z,56.72
2023-05-25T02:15:57.834Z,56.88
2023-05-25T02:18:00.953Z,56.61
2023-05-25T02:20:06.308Z,56.72
2023-05-25T02:22:08.112Z,56.44
2023-05-25T02:24:10.479Z,56.32
2023-05-25T02:26:12.367Z,56.50
2023-05-25T02:28:15.244Z,56.10
2023-05-25T02:30:16.992Z,56.00
2023-05-25T02:32:18.934Z,55.24
2023-05-25T02:34:20.722Z,55.46
2023-05-25T02:36:22.599Z,55.26
2023-05-25T02:38:24.320Z,55.27
2023-05-25T02:40:26.203Z,54.81
2023-05-25T02:42:27.957Z,54.42
2023-05-25T02:44:29.740Z,54.46
2023-05-25T02:46:31.801Z,54.09
2023-05-25T02:48:33.692Z,54.28
2023-05-25T02:50:35.544Z,54.17
2023-05-25T02:52:37.314Z,54.81
2023-05-25T02:54:39.745Z,55.25
2023-05-25T02:56:42.611Z,55.30
2023-05-25T02:58:44.488Z,55.91
2023-05-25T03:00:47.145Z,55.71
2023-05-25T03:02:49.138Z,55.40
2023-05-25T03:04:54.052Z,55.31
2023-05-25T03:06:56.346Z,55.37
2023-05-25T03:09:01.408Z,55.25
2023-05-25T03:11:03.110Z,55.41
2023-05-25T03:13:05.078Z,55.40
2023-05-25T03:15:08.084Z,54.90
2023-05-25T03:17:12.158Z,54.91
2023-05-25T03:19:13.994Z,55.12
2023-05-25T03:21:15.797Z,55.12
2023-05-25T03:23:17.505Z,54.94
2023-05-25T03:25:19.309Z,54.73
2023-05-25T03:27:21.194Z,54.55
2023-05-25T03:29:22.937Z,54.41
2023-05-25T03:31:24.830Z,54.40
2023-05-25T03:33:26.695Z,54.48
2023-05-25T03:35:28.499Z,54.49
2023-05-25T03:37:30.266Z,53.90
2023-05-25T03:39:32.009Z,53.81
2023-05-25T03:41:33.856Z,53.42
2023-05-25T03:43:38.714Z,53.77
2023-05-25T03:45:41.114Z,54.07
2023-05-25T03:47:43.108Z,53.88
2023-05-25T03:49:44.861Z,53.51
2023-05-25T03:51:46.623Z,53.85
2023-05-25T03:53:48.425Z,52.98
2023-05-25T03:55:52.452Z,53.16
2023-05-25T03:57:54.307Z,53.15
2023-05-25T03:59:56.126Z,52.21
2023-05-25T04:01:58.142Z,52.14
2023-05-25T04:04:00.346Z,52.19
2023-05-25T04:06:02.551Z,52.25
2023-05-25T04:08:04.529Z,51.47
2023-05-25T04:10:07.415Z,51.67
2023-05-25T04:12:09.506Z,50.88
2023-05-25T04:14:11.300Z,51.04
2023-05-25T04:16:13.482Z,50.51
2023-05-25T04:18:15.334Z,50.47
2023-05-25T04:20:17.227Z,50.63
2023-05-25T04:22:19.075Z,50.30
2023-05-25T04:24:22.397Z,50.66
2023-05-25T04:26:26.621Z,50.04
2023-05-25T04:28:28.590Z,50.27
2023-05-25T04:30:31.629Z,49.69
2023-05-25T04:32:37.565Z,50.02
2023-05-25T04:34:39.630Z,50.04
2023-05-25T04:36:43.195Z,50.04
2023-05-25T04:38:48.015Z,49.90
2023-05-25T04:40:49.876Z,50.21
2023-05-25T04:42:54.164Z,49.66
2023-05-25T04:44:56.069Z,49.79
2023-05-25T04:46:59.768Z,49.30
2023-05-25T04:49:01.653Z,49.49
2023-05-25T04:51:04.697Z,49.14
2023-05-25T04:53:07.141Z,49.38
2023-05-25T04:55:09.932Z,48.74
2023-05-25T04:57:11.841Z,48.73
2023-05-25T04:59:13.813Z,48.72
2023-05-25T05:01:16.689Z,48.79
2023-05-25T05:03:18.634Z,48.64
2023-05-25T05:05:20.710Z,48.70
2023-05-25T05:07:22.595Z,48.56
2023-05-25T05:09:24.461Z,48.15
2023-05-25T05:11:26.331Z,48.24
2023-05-25T05:13:28.098Z,48.23
2023-05-25T05:15:29.941Z,48.48
2023-05-25T05:17:34.218Z,48.50
2023-05-25T05:19:36.389Z,48.56
2023-05-25T05:21:38.648Z,48.98
2023-05-25T05:23:43.206Z,48.67
2023-05-25T05:25:46.461Z,48.55
2023-05-25T05:27:48.435Z,48.79
2023-05-25T05:29:50.197Z,48.99
2023-05-25T05:31:55.299Z,48.77
2023-05-25T05:33:57.827Z,48.78
2023-05-25T05:36:03.510Z,48.74
2023-05-25T05:38:05.341Z,49.10
2023-05-25T05:40:08.059Z,48.53
2023-05-25T05:42:12.210Z,48.84
2023-05-25T05:44:14.051Z,49.00
2023-05-25T05:46:16.060Z,48.90
2023-05-25T05:48:17.899Z,48.57
2023-05-25T05:50:19.880Z,48.94
2023-05-25T05:52:21.920Z,48.88
2023-05-25T05:54:28.532Z,48.93
2023-05-25T05:56:30.529Z,49.02
2023-05-25T05:58:32.659Z,48.68
2023-05-25T06:00:34.972Z,48.85
2023-05-25T06:02:39.289Z,49.25
2023-05-25T06:04:42.715Z,49.25
2023-05-25T06:06:45.558Z,49.29
2023-05-25T06:08:47.567Z,49.66
2023-05-25T06:10:49.556Z,49.45
2023-05-25T06:12:52.545Z,49.58
2023-05-25T06:14:54.699Z,49.18
2023-05-25T06:17:02.868Z,49.16
2023-05-25T06:19:04.916Z,49.57
2023-05-25T06:21:06.948Z,49.34
2023-05-25T06:23:12.722Z,49.27
2023-05-25T06:25:14.875Z,49.30
2023-05-25T06:27:17.821Z,49.14
2023-05-25T06:29:19.896Z,49.70
2023-05-25T06:31:22.365Z,50.19
2023-05-25T06:33:24.581Z,50.31
2023-05-25T06:35:26.843Z,50.64
2023-05-25T06:37:35.314Z,50.57
2023-05-25T06:39:37.304Z,50.41
2023-05-25T06:41:42.899Z,50.15
2023-05-25T06:43:47.459Z,50.25
2023-05-25T06:45:50.919Z,50.73
2023-05-25T06:47:53.146Z,50.24
2023-05-25T06:49:55.302Z,50.35
2023-05-25T06:51:57.346Z,49.97
2023-05-25T06:54:00.828Z,50.40
2023-05-25T06:56:02.981Z,50.00
2023-05-25T06:58:05.118Z,50.21
2023-05-25T07:00:08.552Z,50.04
2023-05-25T07:02:10.631Z,50.39
2023-05-25T07:04:12.839Z,50.06
2023-05-25T07:06:15.387Z,49.98
2023-05-25T07:08:17.728Z,49.63
2023-05-25T07:10:19.953Z,49.69
2023-05-25T07:12:25.049Z,49.38
2023-05-25T07:14:27.238Z,49.66
2023-05-25T07:16:29.549Z,49.63
2023-05-25T07:18:32.036Z,49.29
2023-05-25T07:20:34.526Z,48.95
2023-05-25T07:22:37.341Z,48.29
2023-05-25T07:24:39.702Z,47.28
2023-05-25T07:26:44.745Z,46.66
2023-05-25T07:28:47.158Z,46.89
2023-05-25T07:30:49.685Z,46.87
2023-05-25T07:32:51.837Z,47.04
2023-05-25T07:34:54.500Z,47.08
2023-05-25T07:36:56.684Z,47.22
2023-05-25T07:38:58.776Z,46.89
2023-05-25T07:41:00.902Z,47.52
2023-05-25T07:43:03.289Z,47.18
2023-05-25T07:45:06.071Z,47.66
2023-05-25T07:47:08.433Z,48.06
2023-05-25T07:49:16.149Z,47.66
2023-05-25T07:51:18.425Z,47.76
2023-05-25T07:53:21.755Z,47.76
2023-05-25T07:55:23.969Z,47.99
2023-05-25T07:57:30.079Z,47.41
2023-05-25T07:59:32.361Z,48.01
2023-05-25T08:01:36.234Z,47.82
2023-05-25T08:03:48.803Z,48.04
2023-05-25T08:05:53.160Z,48.11
2023-05-25T08:07:55.515Z,48.26
2023-05-25T08:09:57.844Z,48.68
2023-05-25T08:12:13.438Z,47.86
2023-05-25T08:14:24.334Z,47.89
2023-05-25T08:16:28.942Z,47.38
2023-05-25T08:18:31.792Z,46.89
2023-05-25T08:20:34.432Z,46.73
2023-05-25T08:22:36.747Z,46.94
2023-05-25T08:24:38.916Z,46.84
2023-05-25T08:26:53.945Z,46.68
2023-05-25T08:28:57.320Z,46.57
2023-05-25T08:30:59.467Z,46.87
2023-05-25T08:33:01.770Z,47.03
2023-05-25T08:35:04.958Z,46.51
2023-05-25T08:37:07.372Z,46.71
2023-05-25T08:39:10.943Z,47.01
2023-05-25T08:44:29.834Z,47.14
2023-05-25T08:46:32.361Z,47.17
2023-05-25T08:48:41.591Z,47.53
2023-05-25T08:50:46.559Z,47.18
2023-05-25T08:52:52.006Z,47.31
2023-05-25T08:54:59.334Z,47.86
2023-05-25T08:57:15.299Z,47.50
2023-05-25T08:59:28.011Z,46.97
2023-05-25T09:01:42.098Z,46.18
2023-05-25T09:03:46.648Z,45.25
2023-05-25T09:05:52.780Z,45.42
2023-05-25T09:07:56.852Z,45.56
2023-05-25T09:10:01.352Z,46.13
2023-05-25T09:12:06.538Z,45.02
2023-05-25T09:14:09.598Z,45.56
2023-05-25T09:16:12.226Z,45.91
2023-05-25T09:18:14.755Z,45.42
2023-05-25T09:20:19.842Z,45.58
2023-05-25T09:22:22.162Z,45.22
2023-05-25T09:24:24.893Z,44.66
2023-05-25T09:26:27.839Z,44.68
2023-05-25T09:28:30.207Z,44.78
2023-05-25T09:30:33.523Z,44.91
2023-05-25T09:32:39.306Z,44.66
2023-05-25T09:34:44.639Z,44.86
2023-05-25T09:36:46.996Z,44.50
2023-05-25T09:38:49.742Z,44.77
2023-05-25T09:40:52.404Z,44.56
2023-05-25T09:42:54.670Z,44.83
2023-05-25T09:44:59.208Z,44.51
2023-05-25T09:47:02.276Z,44.37
2023-05-25T09:49:06.454Z,44.84
2023-05-25T09:51:09.295Z,44.50
2023-05-25T09:53:12.202Z,44.48
2023-05-25T09:55:16.105Z,44.14
2023-05-25T09:57:20.221Z,44.39
2023-05-25T09:59:23.783Z,44.80
2023-05-25T10:01:27.650Z,44.70
2023-05-25T10:03:29.869Z,43.97
2023-05-25T10:05:31.969Z,43.84
2023-05-25T10:07:36.584Z,43.65
2023-05-25T10:09:42.609Z,43.90
2023-05-25T10:11:45.982Z,44.17
2023-05-25T10:13:51.325Z,44.36
2023-05-25T10:15:55.687Z,44.10
2023-05-25T10:18:00.749Z,44.26
2023-05-25T10:20:11.092Z,43.57
2023-05-25T10:22:16.705Z,43.59
2023-05-25T10:24:28.045Z,43.36
2023-05-25T10:26:37.351Z,43.18
2023-05-25T10:28:42.613Z,42.82
2023-05-25T10:30:45.942Z,42.65
2023-05-25T10:32:48.909Z,42.02
2023-05-25T10:34:53.649Z,42.24
2023-05-25T10:36:56.714Z,42.04
2023-05-25T10:38:59.268Z,42.13
2023-05-25T10:41:02.704Z,42.47
2023-05-25T10:43:06.884Z,42.81
2023-05-25T10:45:10.157Z,43.07
2023-05-25T10:47:13.077Z,43.02
2023-05-25T10:49:31.700Z,42.96
2023-05-25T10:51:41.847Z,42.73
2023-05-25T10:53:46.208Z,42.83
2023-05-25T10:55:49.681Z,42.97
2023-05-25T10:58:08.763Z,43.44
2023-05-25T11:00:14.432Z,42.93
2023-05-25T11:02:17.224Z,43.10
2023-05-25T11:04:19.723Z,43.07
2023-05-25T11:06:44.819Z,42.84
2023-05-25T11:08:57.094Z,43.10
2023-05-25T11:10:59.364Z,43.05
2023-05-25T11:13:22.700Z,42.97
2023-05-25T11:15:24.870Z,43.54
2023-05-25T11:17:32.606Z,43.34
2023-05-25T11:19:52.421Z,43.55
2023-05-25T11:21:55.857Z,43.43
2023-05-25T11:24:00.088Z,43.64
2023-05-25T11:26:07.050Z,43.41
2023-05-25T11:28:12.110Z,43.43
2023-05-25T11:30:18.372Z,43.12
2023-05-25T11:32:21.600Z,42.94
2023-05-25T11:34:24.862Z,42.76
2023-05-25T11:36:27.984Z,43.09
2023-05-25T11:38:32.531Z,42.76
2023-05-25T11:40:37.524Z,42.19
2023-05-25T11:42:45.076Z,42.07
2023-05-25T11:44:47.371Z,41.64
2023-05-25T11:46:50.990Z,42.00
2023-05-25T11:48:54.336Z,41.71
2023-05-25T11:51:06.673Z,41.78
2023-05-25T11:53:09.059Z,41.59
2023-05-25T11:55:13.549Z,41.42
2023-05-25T11:57:18.362Z,41.51
2023-05-25T11:59:20.525Z,41.66
2023-05-25T12:01:24.572Z,42.00
2023-05-25T12:03:33.963Z,41.44
2023-05-25T12:05:40.167Z,41.56
2023-05-25T12:07:47.068Z,41.48
2023-05-25T12:09:49.460Z,40.89
2023-05-25T12:11:52.197Z,40.96
2023-05-25T12:13:54.849Z,41.15
2023-05-25T12:16:00.400Z,41.11
2023-05-25T12:18:02.727Z,40.86
2023-05-25T12:20:07.795Z,40.83
2023-05-25T12:22:10.794Z,41.16
2023-05-25T12:24:13.646Z,40.75
2023-05-25T12:26:17.891Z,40.49
2023-05-25T12:28:22.554Z,40.61
2023-05-25T12:30:28.978Z,40.21
2023-05-25T12:32:31.209Z,40.26
2023-05-25T12:34:34.940Z,40.02
2023-05-25T12:36:42.746Z,40.19
2023-05-25T12:39:00.060Z,39.95
2023-05-25T12:41:09.820Z,40.06
2023-05-25T12:43:12.278Z,41.48
2023-05-25T12:45:14.478Z,41.43
2023-05-25T12:47:20.427Z,41.17
2023-05-25T12:49:25.561Z,41.40
2023-05-25T12:51:38.569Z,40.65
2023-05-25T12:53:50.729Z,40.68
2023-05-25T12:56:04.047Z,41.62
2023-05-25T12:58:07.767Z,42.03
2023-05-25T13:00:11.231Z,41.09
2023-05-25T13:02:15.193Z,42.49
2023-05-25T13:04:17.649Z,40.48
2023-05-25T13:06:20.051Z,40.18
2023-05-25T13:08:22.868Z,40.77
2023-05-25T13:10:26.115Z,40.25
2023-05-25T13:12:28.436Z,40.66
2023-05-25T13:14:31.498Z,41.26
2023-05-25T13:16:34.630Z,41.75
2023-05-25T13:18:37.032Z,41.45
2023-05-25T13:20:39.276Z,41.46
2023-05-25T13:22:43.905Z,40.49
2023-05-25T13:24:46.231Z,41.38
2023-05-25T13:26:50.811Z,40.78
2023-05-25T13:28:53.368Z,40.95
2023-05-25T13:30:58.127Z,40.22
2023-05-25T13:33:00.778Z,39.33
2023-05-25T13:35:04.938Z,39.23
2023-05-25T13:37:07.704Z,40.10
2023-05-25T13:39:13.918Z,38.81
2023-05-25T13:41:16.926Z,39.19
2023-05-25T13:43:19.303Z,39.35
2023-05-25T13:45:22.004Z,39.52
2023-05-25T13:47:24.344Z,40.31
2023-05-25T13:49:26.698Z,41.54
2023-05-25T13:51:28.937Z,40.79
2023-05-25T13:53:31.961Z,39.98
2023-05-25T13:55:35.198Z,40.85
2023-05-25T13:57:40.600Z,40.66
2023-05-25T13:59:42.999Z,40.20
2023-05-25T14:01:45.684Z,39.96
2023-05-25T14:03:50.281Z,40.14
2023-05-25T14:05:54.050Z,39.71
2023-05-25T14:07:56.966Z,40.01
2023-05-25T14:10:00.246Z,39.96
2023-05-25T14:12:03.537Z,39.91
2023-05-25T14:14:13.767Z,40.19
2023-05-25T14:16:21.839Z,40.04
2023-05-25T14:18:24.922Z,39.86
2023-05-25T14:20:27.423Z,40.49
2023-05-25T14:22:30.142Z,40.38
2023-05-25T14:24:32.359Z,40.70
2023-05-25T14:26:34.625Z,40.32
2023-05-25T14:28:37.159Z,40.64
2023-05-25T14:30:39.644Z,40.60
2023-05-25T14:32:42.099Z,40.94
2023-05-25T14:34:44.585Z,40.87
2023-05-25T14:36:46.682Z,40.55
2023-05-25T14:38:49.080Z,40.41
2023-05-25T14:40:51.427Z,40.66
2023-05-25T14:42:55.983Z,40.89
2023-05-25T14:44:58.347Z,40.68
2023-05-25T14:47:00.737Z,40.59
2023-05-25T14:49:03.269Z,40.66
2023-05-25T14:51:08.918Z,40.60
2023-05-25T14:53:11.154Z,40.62
2023-05-25T14:55:13.539Z,39.80
2023-05-25T14:57:17.940Z,40.37
2023-05-25T14:59:20.186Z,40.01
2023-05-25T15:01:24.396Z,40.20
2023-05-25T15:03:27.629Z,40.00
2023-05-25T15:05:30.275Z,39.89
2023-05-25T15:07:32.435Z,39.73
2023-05-25T15:09:37.015Z,39.56
2023-05-25T15:11:39.278Z,38.88
2023-05-25T15:13:41.718Z,39.01
2023-05-25T15:15:44.402Z,39.44
2023-05-25T15:17:46.899Z,39.84
2023-05-25T15:19:51.322Z,41.05
2023-05-25T15:21:53.695Z,39.91
2023-05-25T15:23:56.567Z,39.67
2023-05-25T15:26:03.652Z,39.67
2023-05-25T15:28:06.148Z,38.99
2023-05-25T15:30:09.499Z,38.65
2023-05-25T15:32:14.036Z,38.71
2023-05-25T15:34:16.387Z,38.36
2023-05-25T15:36:18.963Z,38.51
2023-05-25T15:41:38.274Z,38.43
2023-05-25T15:43:40.627Z,38.76
2023-05-25T15:45:43.720Z,39.28
2023-05-25T15:47:48.304Z,39.01
2023-05-25T15:49:53.335Z,39.10
2023-05-25T15:51:56.272Z,39.54
2023-05-25T15:53:58.448Z,39.46
2023-05-25T15:56:00.799Z,39.05
2023-05-25T15:58:03.280Z,39.27
2023-05-25T16:00:06.577Z,38.75
2023-05-25T16:02:08.940Z,39.25
2023-05-25T16:04:11.997Z,39.15
2023-05-25T16:06:14.420Z,38.98
2023-05-25T16:08:17.336Z,39.27
2023-05-25T16:10:23.308Z,38.87
2023-05-25T16:12:26.874Z,38.50
2023-05-25T16:14:30.013Z,38.69
2023-05-25T16:16:33.320Z,38.71
2023-05-25T16:18:36.410Z,38.53
2023-05-25T16:20:38.889Z,38.51
2023-05-25T16:22:41.881Z,38.05
2023-05-25T16:24:44.700Z,37.76
2023-05-25T16:26:48.343Z,38.08
2023-05-25T16:28:51.084Z,38.50
2023-05-25T16:30:53.926Z,38.28
2023-05-25T16:32:56.643Z,38.83
2023-05-25T16:35:00.871Z,38.90
2023-05-25T16:37:03.615Z,39.26
2023-05-25T16:39:06.390Z,39.18
2023-05-25T16:41:09.217Z,39.48
2023-05-25T16:43:14.898Z,39.20
2023-05-25T16:45:18.320Z,39.13
2023-05-25T16:47:21.061Z,39.31
2023-05-25T16:49:23.481Z,39.57
2023-05-25T16:51:26.884Z,38.56
2023-05-25T16:53:29.417Z,38.17
2023-05-25T16:55:34.190Z,38.54
2023-05-25T16:57:36.978Z,38.66
2023-05-25T16:59:40.233Z,39.06
2023-05-25T17:01:43.039Z,38.59
2023-05-25T17:03:45.935Z,38.86
2023-05-25T17:05:48.496Z,39.49
2023-05-25T17:07:54.403Z,39.15
2023-05-25T17:09:57.207Z,39.25
2023-05-25T17:12:01.420Z,38.93
2023-05-25T17:14:04.215Z,39.10
2023-05-25T17:16:07.084Z,39.15
2023-05-25T17:18:09.385Z,39.86
2023-05-25T17:20:12.038Z,39.84
2023-05-25T17:22:20.039Z,40.01
2023-05-25T17:24:22.367Z,39.76
2023-05-25T17:26:24.881Z,39.98
2023-05-25T17:28:28.118Z,39.89
2023-05-25T17:30:31.749Z,40.17
2023-05-25T17:32:34.086Z,40.18
2023-05-25T17:34:36.779Z,39.84
2023-05-25T17:36:39.320Z,39.80
2023-05-25T17:38:44.015Z,39.94
2023-05-25T17:40:47.596Z,39.71
2023-05-25T17:42:50.350Z,39.14
2023-05-25T17:44:52.791Z,39.68
2023-05-25T17:46:55.541Z,39.61
2023-05-25T17:48:58.156Z,39.87
2023-05-25T17:51:00.741Z,40.08
2023-05-25T17:53:03.333Z,39.98
2023-05-25T17:55:07.474Z,40.14
2023-05-25T17:57:11.988Z,40.39
2023-05-25T17:59:17.794Z,40.92
2023-05-25T18:01:20.384Z,39.97
2023-05-25T18:03:25.009Z,40.37
2023-05-25T18:05:27.790Z,40.85
2023-05-25T18:07:30.224Z,40.76
2023-05-25T18:09:32.627Z,41.37
2023-05-25T18:11:36.940Z,41.69
2023-05-25T18:13:39.376Z,41.96
2023-05-25T18:15:41.447Z,42.10
2023-05-25T18:17:43.722Z,42.23
2023-05-25T18:19:45.968Z,42.98
2023-05-25T18:21:47.922Z,42.49
2023-05-25T18:23:49.939Z,42.98
2023-05-25T18:25:52.985Z,43.01
2023-05-25T18:27:54.920Z,43.33
2023-05-25T18:29:57.044Z,43.40
2023-05-25T18:31:59.113Z,43.40
2023-05-25T18:34:01.262Z,43.90
2023-05-25T18:36:03.184Z,43.82
2023-05-25T18:38:06.943Z,44.42
2023-05-25T18:40:11.812Z,44.35
2023-05-25T18:42:13.694Z,44.49
2023-05-25T18:44:15.834Z,44.97
2023-05-25T18:46:17.867Z,44.48
2023-05-25T18:48:19.887Z,44.57
2023-05-25T18:50:21.919Z,44.41
2023-05-25T18:52:24.434Z,44.28
2023-05-25T18:54:26.544Z,43.65
2023-05-25T18:56:28.401Z,43.52
2023-05-25T18:58:30.351Z,43.60
2023-05-25T19:00:32.285Z,43.49
2023-05-25T19:02:36.622Z,43.67
2023-05-25T19:04:38.567Z,43.38
2023-05-25T19:06:40.495Z,43.06
2023-05-25T19:08:42.366Z,43.29
2023-05-25T19:10:46.561Z,43.23
2023-05-25T19:12:48.543Z,43.51
2023-05-25T19:14:50.553Z,43.65
2023-05-25T19:16:55.095Z,43.45
2023-05-25T19:18:57.319Z,43.48
2023-05-25T19:20:59.362Z,44.17
2023-05-25T19:23:01.910Z,43.81
2023-05-25T19:25:04.369Z,43.54
2023-05-25T19:27:06.319Z,43.72
2023-05-25T19:29:08.238Z,43.72
2023-05-25T19:31:10.339Z,44.01
2023-05-25T19:33:12.484Z,43.92
2023-05-25T19:35:14.599Z,45.21
2023-05-25T19:37:17.107Z,45.02
2023-05-25T19:39:19.388Z,44.70
2023-05-25T19:41:21.541Z,44.89
2023-05-25T19:43:23.535Z,44.78
2023-05-25T19:45:26.294Z,45.51
2023-05-25T19:47:28.357Z,46.09
2023-05-25T19:49:30.222Z,45.59
2023-05-25T19:51:33.113Z,44.95
2023-05-25T19:53:34.944Z,45.24
2023-05-25T19:55:37.772Z,45.09
2023-05-25T19:57:39.790Z,45.31
2023-05-25T19:59:41.789Z,45.32
2023-05-25T20:01:43.963Z,45.30
2023-05-25T20:03:47.014Z,45.84
2023-05-25T20:05:49.166Z,45.64
2023-05-25T20:07:52.472Z,45.89
2023-05-25T20:09:54.372Z,45.92
2023-05-25T20:11:58.263Z,46.02
2023-05-25T20:14:00.185Z,46.17
2023-05-25T20:16:02.406Z,46.38
2023-05-25T20:18:04.560Z,47.13
2023-05-25T20:20:07.389Z,47.29
2023-05-25T20:22:09.347Z,46.98
2023-05-25T20:24:11.205Z,47.27
2023-05-25T20:26:13.245Z,47.18
2023-05-25T20:28:15.138Z,47.44
2023-05-25T20:30:17.417Z,47.39
2023-05-25T20:32:19.340Z,48.22
2023-05-25T20:34:21.119Z,48.24
2023-05-25T20:36:22.983Z,48.36
2023-05-25T20:38:24.863Z,48.18
2023-05-25T20:40:27.510Z,48.56
2023-05-25T20:42:33.089Z,48.14
2023-05-25T20:44:34.983Z,48.37
2023-05-25T20:46:37.107Z,48.69
2023-05-25T20:48:39.703Z,48.63
2023-05-25T20:50:41.581Z,49.04
2023-05-25T20:52:43.507Z,49.34
2023-05-25T20:54:45.856Z,49.84
2023-05-25T20:56:48.410Z,49.53
2023-05-25T20:58:50.291Z,49.55
2023-05-25T21:00:52.202Z,49.97
2023-05-25T21:02:54.099Z,49.31
2023-05-25T21:04:56.270Z,50.10
2023-05-25T21:06:58.198Z,49.43
2023-05-25T21:09:00.187Z,49.41
2023-05-25T21:11:02.131Z,49.15
2023-05-25T21:13:04.272Z,49.27
2023-05-25T21:15:08.795Z,48.73
2023-05-25T21:17:11.030Z,49.08
2023-05-25T21:19:13.005Z,49.04
2023-05-25T21:21:16.042Z,48.79
2023-05-25T21:23:18.000Z,49.34
2023-05-25T21:25:20.669Z,49.09
2023-05-25T21:27:22.783Z,48.30
2023-05-25T21:29:25.107Z,48.68
2023-05-25T21:31:27.270Z,48.74
2023-05-25T21:33:31.010Z,48.66
2023-05-25T21:35:32.878Z,48.67
2023-05-25T21:37:34.986Z,48.49
2023-05-25T21:39:36.818Z,48.16
2023-05-25T21:41:38.733Z,48.47
2023-05-25T21:43:41.059Z,47.78
2023-05-25T21:45:43.058Z,48.01
2023-05-25T21:47:45.034Z,48.30
2023-05-25T21:49:46.970Z,48.80
2023-05-25T21:51:48.769Z,48.50
2023-05-25T21:53:50.746Z,48.58
2023-05-25T21:55:53.100Z,49.21
2023-05-25T21:57:55.268Z,48.40
2023-05-25T21:59:57.161Z,48.43
2023-05-25T22:01:59.066Z,48.56
2023-05-25T22:04:00.917Z,48.81
2023-05-25T22:06:02.862Z,48.96
2023-05-25T22:08:05.036Z,49.40
2023-05-25T22:10:07.831Z,49.48
2023-05-25T22:12:11.433Z,49.21
2023-05-25T22:14:13.251Z,49.00
2023-05-25T22:16:15.104Z,49.68
2023-05-25T22:18:16.928Z,49.66
2023-05-25T22:20:19.548Z,49.68
2023-05-25T22:22:21.600Z,49.49
2023-05-25T22:24:23.451Z,49.83
2023-05-25T22:26:25.401Z,49.23
2023-05-25T22:28:27.434Z,49.32
2023-05-25T22:30:29.290Z,50.41
2023-05-25T22:32:31.281Z,50.29
2023-05-25T22:34:33.121Z,49.79
2023-05-25T22:36:35.119Z,49.73
2023-05-25T22:38:36.928Z,50.08
2023-05-25T22:40:39.110Z,49.33
2023-05-25T22:42:41.004Z,49.14
2023-05-25T22:44:42.888Z,49.33
2023-05-25T22:46:44.984Z,49.50
2023-05-25T22:48:46.830Z,49.22
2023-05-25T22:50:48.643Z,49.51
2023-05-25T22:52:50.617Z,49.48
2023-05-25T22:54:52.439Z,49.81
2023-05-25T22:56:54.244Z,49.39
2023-05-25T22:58:56.064Z,49.57
2023-05-25T23:00:57.912Z,50.01
2023-05-25T23:03:01.667Z,50.35
2023-05-25T23:05:06.432Z,50.41
2023-05-25T23:07:08.205Z,50.68
2023-05-25T23:09:09.980Z,50.77
2023-05-25T23:11:11.774Z,50.52
2023-05-25T23:13:15.020Z,51.20
2023-05-25T23:15:18.672Z,50.82
2023-05-25T23:17:21.826Z,50.87
2023-05-25T23:19:25.845Z,50.99
2023-05-25T23:21:27.670Z,50.66
2023-05-25T23:23:29.432Z,51.00
2023-05-25T23:25:31.260Z,51.35
2023-05-25T23:27:33.068Z,51.68
2023-05-25T23:29:35.051Z,51.45
2023-05-25T23:31:37.097Z,51.28
2023-05-25T23:33:38.922Z,52.31
2023-05-25T23:35:40.710Z,51.69
2023-05-25T23:37:44.112Z,52.76
2023-05-25T23:39:46.151Z,52.38
2023-05-25T23:41:48.119Z,52.62
2023-05-25T23:43:49.961Z,52.41
2023-05-25T23:45:51.893Z,52.71
2023-05-25T23:47:54.102Z,52.98
2023-05-25T23:49:58.349Z,53.39
2023-05-25T23:52:00.401Z,53.04
2023-05-25T23:54:04.801Z,52.93
2023-05-25T23:56:07.186Z,52.89
2023-05-25T23:58:08.998Z,52.96
